Time;durP1;ratioP1;P1;durP2;ratioP2;P2;SDS_P1;SDS_P2;PMS_P1;PMS_P2;Temp;Humidity;BMP_temperature;BMP_pressure;BME280_temperature;BME280_humidity;BME280_pressure;Samples;Min_cycle;Max_cycle;Signal;HPM_P1;HPM_P2
2023/03/12 16:05:37;;;;;;;;;;;;;;;16.84;42.77;100639.81;4889801;29;19928;-80
2023/03/12 16:08:13;;;;;;;;;;;;;;;16.99;42.36;100646.00;4895283;29;19923;-80
2023/03/12 16:10:41;;;;;;;;;;;;;;;17.02;42.88;100653.69;4895267;29;19934;-81
2023/03/12 16:13:11;;;;;;;;;;;;;;;16.90;42.65;100648.75;4895388;29;19934;-81
2023/03/12 16:15:41;;;;;;;;;;;;;;;16.60;43.31;100651.25;4895026;29;19927;-80
2023/03/12 16:18:13;;;;;;;;;;;;;;;16.85;43.31;100663.56;4894784;29;19934;-81
2023/03/12 16:20:40;;;;;;;;;;;;;;;16.84;42.94;100675.75;4895291;29;20378;-80
2023/03/12 16:23:08;;;;;;;;;;;;;;;16.71;44.14;100674.72;4898787;29;20307;-81
2023/03/12 16:25:36;;;;;;;;;;;;;;;16.74;43.25;100676.03;4894706;29;19928;-80
2023/03/12 16:28:06;;;;;;;;;;;;;;;16.67;43.78;100679.25;4894663;29;19928;-80
2023/03/12 16:30:36;;;;;;;;;;;;;;;16.54;43.90;100686.53;4877915;29;20374;-81
2023/03/12 16:33:19;;;;;;;;;;;;;;;16.69;43.57;100684.47;4837432;29;19939;-80
2023/03/12 16:35:47;;;;;;;;;;;;;;;16.76;43.40;100685.63;4875614;29;19973;-80
2023/03/12 16:38:16;;;;;;;;;;;;;;;16.71;43.95;100690.50;4869229;29;19927;-81
2023/03/12 16:40:46;;;;;;;;;;;;;;;16.66;43.54;100691.44;4851007;29;20302;-80
2023/03/12 16:43:17;;;;;;;;;;;;;;;16.62;43.17;100698.75;4880543;29;19935;-81
2023/03/12 16:45:45;;;;;;;;;;;;;;;16.53;44.40;100704.22;4865150;29;19923;-80
2023/03/12 16:48:18;;;;;;;;;;;;;;;16.39;44.30;100699.59;4863641;29;19928;-79
2023/03/12 16:50:48;;;;;;;;;;;;;;;16.53;44.80;100698.72;4880342;29;21185;-79
2023/03/12 16:53:16;;;;;;;;;;;;;;;16.53;45.08;100693.97;4852096;29;19947;-79
2023/03/12 16:55:50;;;;;;;;;;;;;;;16.65;44.47;100698.91;4851820;29;19923;-81
2023/03/12 16:58:18;;;;;;;;;;;;;;;16.32;45.09;100703.97;4882437;29;19927;-80
2023/03/12 17:00:46;;;;;;;;;;;;;;;15.94;46.27;100702.41;4865949;29;19924;-80
2023/03/12 17:03:19;;;;;;;;;;;;;;;16.16;45.96;100715.38;4881819;29;19923;-79
2023/03/12 17:05:47;;;;;;;;;;;;;;;16.08;45.70;100722.47;4866567;29;20326;-79
2023/03/12 17:08:15;;;;;;;;;;;;;;;16.04;46.24;100721.47;4866839;29;20246;-79
2023/03/12 17:10:43;;;;;;;;;;;;;;;16.07;45.46;100726.38;4847249;29;20256;-80
2023/03/12 17:13:17;;;;;;;;;;;;;;;15.97;46.23;100732.13;4846982;29;19931;-80
2023/03/12 17:15:45;;;;;;;;;;;;;;;16.06;46.60;100734.97;4863519;29;19931;-81
2023/03/12 17:18:14;;;;;;;;;;;;;;;15.99;46.37;100736.22;4848303;29;19999;-80
2023/03/12 17:20:42;;;;;;;;;;;;;;;15.89;46.79;100741.13;4863763;29;19930;-80
2023/03/12 17:23:11;;;;;;;;;;;;;;;15.96;47.16;100745.13;4863544;29;19924;-80
2023/03/12 17:25:40;;;;;;;;;;;;;;;15.60;47.66;100743.16;4864717;29;19957;-80
2023/03/12 17:28:09;;;;;;;;;;;;;;;15.51;47.58;100742.25;4850467;29;20271;-79
2023/03/12 17:30:37;;;;;;;;;;;;;;;15.48;47.37;100745.66;4865688;29;19930;-80
2023/03/12 17:33:07;;;;;;;;;;;;;;;15.56;47.51;100755.94;4882637;29;19934;-79
2023/03/12 17:35:35;;;;;;;;;;;;;;;15.55;47.68;100763.38;4850239;29;20409;-80
2023/03/12 17:38:03;;;;;;;;;;;;;;;15.85;48.02;100772.09;4849588;29;20264;-80
2023/03/12 17:40:31;;;;;;;;;;;;;;;15.79;47.87;100780.81;4862293;29;19924;-80
2023/03/12 17:42:59;;;;;;;;;;;;;;;15.67;47.46;100786.88;4861229;29;19927;-80
2023/03/12 17:45:27;;;;;;;;;;;;;;;15.75;47.54;100799.94;4865261;29;19931;-79
2023/03/12 17:47:55;;;;;;;;;;;;;;;15.75;47.56;100813.75;4865111;29;19930;-80
2023/03/12 17:50:23;;;;;;;;;;;;;;;15.72;46.93;100819.88;4850688;29;19930;-80
2023/03/12 17:52:53;;;;;;;;;;;;;;;15.42;47.74;100822.97;4849695;29;19923;-80
2023/03/12 17:55:21;;;;;;;;;;;;;;;15.37;48.12;100822.25;4850861;29;19928;-80
2023/03/12 17:57:51;;;;;;;;;;;;;;;15.43;48.07;100832.03;4849534;29;19927;-80
2023/03/12 18:00:21;;;;;;;;;;;;;;;15.32;47.69;100829.47;4846777;29;19934;-80
2023/03/12 18:02:49;;;;;;;;;;;;;;;15.51;48.02;100836.03;4874402;29;19927;-78
2023/03/12 18:05:18;;;;;;;;;;;;;;;14.88;49.23;100837.22;4850257;29;19923;-86
2023/03/12 18:07:51;;;;;;;;;;;;;;;14.32;50.02;100844.44;4878776;29;19927;-86
2023/03/12 18:10:34;;;;;;;;;;;;;;;14.13;51.27;100847.19;4902805;29;19928;-85
2023/03/12 18:13:21;;;;;;;;;;;;;;;13.79;52.41;100838.84;4881695;29;19930;-86
2023/03/12 18:16:09;;;;;;;;;;;;;;;13.60;53.07;100833.31;4868032;29;19932;-86
2023/03/12 18:19:40;;;;;;;;;;;;;;;13.52;53.44;100842.22;4872688;29;19931;-87
2023/03/12 18:22:31;;;;;;;;;;;;;;;13.49;54.08;100842.81;4846337;29;19924;-87
2023/03/12 18:25:38;;;;;;;;;;;;;;;13.47;53.76;100856.84;4855328;29;19935;-85
2023/03/12 18:28:43;;;;;;;;;;;;;;;13.28;54.77;100860.31;4893456;29;20301;-87
2023/03/12 18:31:38;;;;;;;;;;;;;;;13.36;54.49;100858.88;4859662;29;19924;-86
2023/03/12 18:34:15;;;;;;;;;;;;;;;13.29;54.65;100858.38;4864450;29;20358;-78
2023/03/12 18:36:43;;;;;;;;;;;;;;;13.24;54.61;100869.44;4865315;29;20306;-77
2023/03/12 18:39:12;;;;;;;;;;;;;;;13.11;54.54;100866.25;4879859;29;19930;-79
2023/03/12 18:41:40;;;;;;;;;;;;;;;13.29;54.42;100878.44;4865006;29;19934;-78
2023/03/12 18:44:08;;;;;;;;;;;;;;;13.24;54.72;100880.44;4850196;29;20374;-76
2023/03/12 18:46:36;;;;;;;;;;;;;;;13.17;55.43;100884.34;4862769;29;19931;-79
2023/03/12 18:49:06;;;;;;;;;;;;;;;13.11;55.55;100879.97;4846317;29;20033;-78
2023/03/12 18:51:34;;;;;;;;;;;;;;;13.26;54.27;100884.50;4857900;29;20308;-79
2023/03/12 18:54:02;;;;;;;;;;;;;;;13.25;55.27;100884.81;4863833;29;19950;-79
2023/03/12 18:56:30;;;;;;;;;;;;;;;13.07;55.29;100889.94;4848604;29;20362;-79
2023/03/12 18:58:58;;;;;;;;;;;;;;;13.09;54.84;100890.47;4849331;29;20374;-79
2023/03/12 19:01:25;;;;;;;;;;;;;;;12.99;54.97;100891.38;4865441;29;19923;-79
2023/03/12 19:03:53;;;;;;;;;;;;;;;12.96;54.87;100902.94;4849356;29;19934;-79
2023/03/12 19:06:21;;;;;;;;;;;;;;;13.03;55.78;100905.34;4865077;29;19924;-78
2023/03/12 19:08:49;;;;;;;;;;;;;;;13.00;55.12;100911.44;4849978;29;19923;-79
2023/03/12 19:11:17;;;;;;;;;;;;;;;12.99;55.12;100915.25;4897243;29;19931;-79
2023/03/12 19:13:48;;;;;;;;;;;;;;;12.84;54.98;100913.47;4896164;29;20294;-77
2023/03/12 19:16:20;;;;;;;;;;;;;;;12.80;55.05;100917.91;4896206;29;20449;-78
2023/03/12 19:18:50;;;;;;;;;;;;;;;12.82;54.94;100916.53;4896188;29;20346;-77
2023/03/12 19:21:18;;;;;;;;;;;;;;;12.82;55.24;100919.28;4896500;29;20402;-77
2023/03/12 19:23:45;;;;;;;;;;;;;;;12.82;54.10;100918.44;4879852;29;19927;-77
2023/03/12 19:26:13;;;;;;;;;;;;;;;12.83;54.12;100925.56;4880401;29;20398;-77
2023/03/12 19:28:41;;;;;;;;;;;;;;;12.72;54.20;100931.13;4897020;29;19923;-77
2023/03/12 19:31:10;;;;;;;;;;;;;;;12.96;53.33;100937.84;4896875;29;19924;-77
2023/03/12 19:33:38;;;;;;;;;;;;;;;12.77;54.11;100933.03;4896892;29;19924;-77
2023/03/12 19:36:06;;;;;;;;;;;;;;;12.77;53.42;100925.59;4897039;29;19930;-77
2023/03/12 19:38:34;;;;;;;;;;;;;;;12.78;54.57;100934.69;4897079;29;19923;-77
2023/03/12 19:41:03;;;;;;;;;;;;;;;12.59;54.37;100938.09;4905029;29;19923;-76
2023/03/12 19:43:35;;;;;;;;;;;;;;;12.62;54.86;100944.94;4896337;29;19935;-76
2023/03/12 19:46:03;;;;;;;;;;;;;;;12.57;55.76;100964.19;4896463;29;20393;-77
2023/03/12 19:48:31;;;;;;;;;;;;;;;12.55;55.76;100966.38;4896650;29;19923;-77
2023/03/12 19:51:09;;;;;;;;;;;;;;;12.47;55.36;100974.13;4896442;29;19929;-77
2023/03/12 19:53:37;;;;;;;;;;;;;;;12.59;55.10;100990.25;4896555;29;19923;-77
2023/03/12 19:56:04;;;;;;;;;;;;;;;12.53;55.11;100996.88;4897813;29;19930;-78
2023/03/12 19:58:32;;;;;;;;;;;;;;;12.51;55.43;100990.84;4901164;29;19923;-76
2023/03/12 20:01:00;;;;;;;;;;;;;;;12.49;55.17;100984.81;4900045;29;19930;-77
2023/03/12 20:03:28;;;;;;;;;;;;;;;12.43;55.10;100994.19;4899427;29;19931;-77
2023/03/12 20:05:56;;;;;;;;;;;;;;;12.39;54.80;101002.16;4895576;29;20306;-76
2023/03/12 20:08:29;;;;;;;;;;;;;;;12.41;55.41;101004.63;4892188;29;19923;-77
2023/03/12 20:11:00;;;;;;;;;;;;;;;12.45;54.84;101005.69;4895182;29;19931;-78
2023/03/12 20:13:28;;;;;;;;;;;;;;;12.42;55.11;101003.53;4876681;29;20310;-77
2023/03/12 20:15:55;;;;;;;;;;;;;;;12.38;54.73;101005.19;4898874;29;19927;-76
2023/03/12 20:18:23;;;;;;;;;;;;;;;12.16;55.29;101006.38;4898878;29;19927;-79
2023/03/12 20:20:50;;;;;;;;;;;;;;;12.12;56.71;101006.09;4898843;29;19927;-77
2023/03/12 20:23:18;;;;;;;;;;;;;;;12.08;56.11;101005.84;4898699;29;19923;-77
2023/03/12 20:25:49;;;;;;;;;;;;;;;12.07;56.34;100998.72;4898703;29;19930;-77
2023/03/12 20:28:17;;;;;;;;;;;;;;;12.07;56.19;100998.72;4898791;29;19939;-76
2023/03/12 20:30:44;;;;;;;;;;;;;;;12.09;55.15;100991.03;4898634;29;19935;-76
2023/03/12 20:33:12;;;;;;;;;;;;;;;12.12;55.27;100999.81;4898130;29;19923;-77
2023/03/12 20:35:40;;;;;;;;;;;;;;;12.08;55.25;100996.81;4897480;29;19930;-78
2023/03/12 20:38:07;;;;;;;;;;;;;;;12.08;55.99;100992.13;4899198;29;19942;-77
2023/03/12 20:40:35;;;;;;;;;;;;;;;12.08;55.47;100988.59;4898848;29;19923;-77
2023/03/12 20:43:03;;;;;;;;;;;;;;;11.96;55.61;100997.91;4898854;29;20377;-77
2023/03/12 20:45:31;;;;;;;;;;;;;;;12.02;56.00;101001.44;4899076;29;19924;-77
2023/03/12 20:47:59;;;;;;;;;;;;;;;11.89;56.06;100991.09;4899219;29;19931;-77
2023/03/12 20:50:27;;;;;;;;;;;;;;;11.75;56.86;100997.16;4899294;29;19931;-77
2023/03/12 20:52:55;;;;;;;;;;;;;;;11.83;56.20;100999.31;4898662;29;19934;-78
2023/03/12 20:55:22;;;;;;;;;;;;;;;11.88;56.08;100989.44;4897119;29;19935;-78
2023/03/12 20:57:50;;;;;;;;;;;;;;;11.78;56.68;100993.84;4898313;29;19923;-77
2023/03/12 21:00:20;;;;;;;;;;;;;;;11.71;56.30;100990.56;4886773;29;20449;-77
2023/03/12 21:02:48;;;;;;;;;;;;;;;11.70;57.25;100994.41;4897344;29;19924;-78
2023/03/12 21:05:16;;;;;;;;;;;;;;;11.72;56.40;100989.47;4898605;29;19931;-77
2023/03/12 21:07:43;;;;;;;;;;;;;;;11.77;56.54;101000.44;4897639;29;19927;-77
2023/03/12 21:10:12;;;;;;;;;;;;;;;11.71;56.58;101007.03;4894310;29;19927;-77
2023/03/12 21:12:40;;;;;;;;;;;;;;;11.69;56.68;101010.03;4879382;29;19930;-78
2023/03/12 21:15:08;;;;;;;;;;;;;;;11.87;56.40;101023.47;4880293;29;20386;-77
2023/03/12 21:17:37;;;;;;;;;;;;;;;11.75;56.92;101018.25;4880202;29;19934;-77
2023/03/12 21:20:09;;;;;;;;;;;;;;;11.77;56.26;101038.81;4879874;29;20386;-77
2023/03/12 21:22:37;;;;;;;;;;;;;;;11.81;56.02;101039.09;4880263;29;19924;-77
2023/03/12 21:25:05;;;;;;;;;;;;;;;11.60;58.07;101036.38;4880500;29;19930;-78
2023/03/12 21:27:33;;;;;;;;;;;;;;;11.57;57.35;101034.19;4880199;29;20298;-78
2023/03/12 21:30:16;;;;;;;;;;;;;;;11.51;57.84;101040.75;4880027;29;19924;-78
2023/03/12 21:32:44;;;;;;;;;;;;;;;11.65;56.99;101041.88;4879992;29;20299;-78
2023/03/12 21:35:11;;;;;;;;;;;;;;;11.50;57.43;101044.59;4879990;29;19923;-78
2023/03/12 21:37:39;;;;;;;;;;;;;;;11.56;57.97;101043.50;4878320;29;20385;-82
2023/03/12 21:40:07;;;;;;;;;;;;;;;11.51;57.55;101040.75;4879939;29;20375;-81
2023/03/12 21:42:35;;;;;;;;;;;;;;;11.49;57.68;101045.72;4879806;29;19924;-80
2023/03/12 21:45:03;;;;;;;;;;;;;;;11.47;57.04;101045.97;4879496;29;19923;-81
2023/03/12 21:47:31;;;;;;;;;;;;;;;11.51;57.66;101051.72;4894019;29;19923;-80
2023/03/12 21:49:58;;;;;;;;;;;;;;;11.45;57.77;101047.34;4879634;29;19927;-81
2023/03/12 21:52:26;;;;;;;;;;;;;;;11.43;58.29;101055.84;4879585;29;20299;-81
2023/03/12 21:54:53;;;;;;;;;;;;;;;11.34;58.42;101047.34;4879461;29;19998;-80
2023/03/12 21:57:21;;;;;;;;;;;;;;;11.33;58.00;101039.41;4879465;29;19924;-81
2023/03/12 21:59:49;;;;;;;;;;;;;;;11.29;58.42;101045.41;4879705;29;19927;-81
2023/03/12 22:02:16;;;;;;;;;;;;;;;11.18;58.79;101043.78;4893616;29;20314;-81
2023/03/12 22:04:44;;;;;;;;;;;;;;;11.13;59.02;101041.84;4879592;29;19927;-81
2023/03/12 22:07:12;;;;;;;;;;;;;;;11.14;58.80;101053.63;4878694;29;20391;-81
2023/03/12 22:09:39;;;;;;;;;;;;;;;11.13;59.34;101049.25;4894055;29;19935;-81
2023/03/12 22:12:07;;;;;;;;;;;;;;;11.07;59.79;101048.44;4879876;29;19943;-81
2023/03/12 22:14:34;;;;;;;;;;;;;;;10.95;60.66;101043.19;4879838;29;19935;-81
2023/03/12 22:17:02;;;;;;;;;;;;;;;10.89;60.38;101038.78;4893947;29;19927;-81
2023/03/12 22:19:30;;;;;;;;;;;;;;;10.82;60.45;101047.28;4879516;29;19931;-81
2023/03/12 22:21:57;;;;;;;;;;;;;;;10.82;60.85;101052.75;4879626;29;20287;-80
2023/03/12 22:24:25;;;;;;;;;;;;;;;10.76;61.57;101053.84;4879486;29;19927;-81
2023/03/12 22:26:52;;;;;;;;;;;;;;;10.66;62.15;101057.34;4879578;29;19943;-81
2023/03/12 22:29:20;;;;;;;;;;;;;;;10.57;62.03;101048.81;4893838;29;19928;-81
2023/03/12 22:31:48;;;;;;;;;;;;;;;10.54;62.30;101048.53;4879538;29;19935;-81
2023/03/12 22:34:16;;;;;;;;;;;;;;;10.45;63.07;101049.06;4879417;29;19924;-81
2023/03/12 22:36:44;;;;;;;;;;;;;;;10.36;63.47;101047.91;4879511;29;19990;-81
2023/03/12 22:39:11;;;;;;;;;;;;;;;10.27;64.15;101047.59;4879739;29;19924;-81
2023/03/12 22:41:39;;;;;;;;;;;;;;;10.06;65.07;101043.91;4879395;29;20066;-81
2023/03/12 22:44:07;;;;;;;;;;;;;;;9.97;66.71;101049.06;4879324;29;20366;-81
2023/03/12 22:46:35;;;;;;;;;;;;;;;9.92;66.39;101046.31;4879344;29;19924;-81
2023/03/12 22:49:03;;;;;;;;;;;;;;;9.92;66.76;101049.88;4879267;29;19931;-81
2023/03/12 22:51:31;;;;;;;;;;;;;;;9.89;66.67;101053.16;4893241;29;19931;-81
2023/03/12 22:53:59;;;;;;;;;;;;;;;9.90;66.98;101062.16;4879359;29;20414;-81
2023/03/12 22:56:27;;;;;;;;;;;;;;;9.91;66.88;101059.16;4879234;29;19936;-81
2023/03/12 22:58:55;;;;;;;;;;;;;;;9.91;67.12;101059.16;4879240;29;20112;-81
2023/03/12 23:01:22;;;;;;;;;;;;;;;9.86;67.41;101055.56;4879203;29;19924;-81
2023/03/12 23:03:51;;;;;;;;;;;;;;;9.84;67.95;101063.19;4878692;29;19924;-81
2023/03/12 23:06:19;;;;;;;;;;;;;;;9.80;68.25;101051.97;4893300;29;20287;-81
2023/03/12 23:08:47;;;;;;;;;;;;;;;9.67;69.04;101053.25;4879045;29;19951;-80
2023/03/12 23:11:15;;;;;;;;;;;;;;;9.59;69.05;101054.56;4879092;29;20371;-81
2023/03/12 23:13:43;;;;;;;;;;;;;;;9.56;69.17;101057.81;4878898;29;19928;-81
2023/03/12 23:16:14;;;;;;;;;;;;;;;9.60;69.00;101047.19;4862482;29;20419;-81
2023/03/12 23:18:42;;;;;;;;;;;;;;;9.54;69.25;101049.88;4878873;29;19931;-81
2023/03/12 23:21:12;;;;;;;;;;;;;;;9.56;69.06;101052.34;4878866;29;19928;-80
2023/03/12 23:23:42;;;;;;;;;;;;;;;9.48;68.95;101047.38;4877450;29;19935;-81
2023/03/12 23:26:12;;;;;;;;;;;;;;;9.51;68.92;101057.78;4878862;29;19939;-81
2023/03/12 23:28:40;;;;;;;;;;;;;;;9.49;68.67;101057.22;4878866;29;19935;-81
2023/03/12 23:31:09;;;;;;;;;;;;;;;9.43;69.36;101061.81;4880542;29;20378;-80
2023/03/12 23:33:37;;;;;;;;;;;;;;;9.48;69.53;101066.50;4866304;29;19923;-81
2023/03/12 23:36:10;;;;;;;;;;;;;;;9.44;68.87;101068.94;4865943;29;19924;-81
2023/03/12 23:38:38;;;;;;;;;;;;;;;9.35;69.91;101068.59;4882719;29;19932;-81
2023/03/12 23:41:08;;;;;;;;;;;;;;;9.31;69.35;101067.44;4882588;29;19924;-81
2023/03/12 23:43:35;;;;;;;;;;;;;;;9.24;69.54;101064.91;4882382;29;19924;-81
2023/03/12 23:46:04;;;;;;;;;;;;;;;9.30;69.43;101063.06;4882466;29;19924;-81
2023/03/12 23:48:32;;;;;;;;;;;;;;;9.36;69.11;101053.00;4882476;29;19931;-81
2023/03/12 23:51:10;;;;;;;;;;;;;;;9.29;69.19;101055.94;4865591;29;19935;-81
2023/03/12 23:53:39;;;;;;;;;;;;;;;9.25;70.18;101049.38;4882394;29;19923;-81
2023/03/12 23:56:30;;;;;;;;;;;;;;;9.13;70.19;101053.09;4881497;29;19927;-81
2023/03/12 23:58:58;;;;;;;;;;;;;;;9.26;69.71;101056.47;4882330;29;20295;-81
